Time;durP1;ratioP1;P1;durP2;ratioP2;P2;SDS_P1;SDS_P2;PMS_P1;PMS_P2;Temp;Humidity;BMP_temperature;BMP_pressure;BME280_temperature;BME280_humidity;BME280_pressure;Samples;Min_cycle;Max_cycle;Signal;HPM_P1;HPM_P2
2023/06/17 00:01:56;;;;;;;18.30;10.03;;;;;;;23.82;61.82;99735.33;123260;1102;104236;-77
2023/06/17 00:04:28;;;;;;;21.87;9.73;;;;;;;23.81;61.88;99735.38;123347;1102;104438;-77
2023/06/17 00:06:59;;;;;;;19.43;9.23;;;;;;;23.77;62.02;99733.73;123244;1102;104537;-76
2023/06/17 00:09:30;;;;;;;23.40;9.60;;;;;;;23.73;62.24;99734.74;123310;1102;104225;-77
2023/06/17 00:12:02;;;;;;;18.37;8.63;;;;;;;23.69;62.14;99729.48;123411;1100;104354;-78
2023/06/17 00:14:33;;;;;;;17.03;8.80;;;;;;;23.64;62.21;99727.89;123249;1102;104417;-76
2023/06/17 00:17:08;;;;;;;20.03;8.40;;;;;;;23.62;62.40;99725.25;123422;1100;104380;-76
2023/06/17 00:19:40;;;;;;;16.83;8.83;;;;;;;23.57;62.13;99723.62;123380;1100;104240;-77
2023/06/17 00:22:11;;;;;;;17.85;9.10;;;;;;;23.51;62.63;99713.97;123267;1102;104278;-76
2023/06/17 00:24:43;;;;;;;18.90;9.20;;;;;;;23.47;62.28;99713.20;123267;1101;104223;-78
2023/06/17 00:27:14;;;;;;;19.40;9.57;;;;;;;23.43;62.76;99716.88;123363;1102;104297;-76
2023/06/17 00:29:45;;;;;;;18.73;8.70;;;;;;;23.40;62.95;99713.42;123240;1100;104650;-77
2023/06/17 00:32:19;;;;;;;19.00;9.43;;;;;;;23.39;62.81;99717.01;123334;1100;104668;-80
2023/06/17 00:34:50;;;;;;;16.00;9.10;;;;;;;23.36;62.85;99725.13;123290;1100;104316;-76
2023/06/17 00:37:22;;;;;;;21.30;9.63;;;;;;;23.27;63.38;99716.45;123261;1102;104293;-75
2023/06/17 00:39:53;;;;;;;17.55;8.75;;;;;;;23.20;63.51;99711.33;123326;1102;104760;-77
2023/06/17 00:42:24;;;;;;;23.30;9.90;;;;;;;23.11;63.57;99716.02;123339;1102;104428;-77
2023/06/17 00:44:56;;;;;;;19.33;9.33;;;;;;;23.04;63.49;99706.38;123503;1099;104229;-75
2023/06/17 00:47:27;;;;;;;18.47;9.27;;;;;;;23.00;63.97;99711.85;123249;1102;104437;-76
2023/06/17 00:49:59;;;;;;;19.33;9.40;;;;;;;22.91;64.14;99711.20;123316;1102;104367;-81
2023/06/17 00:52:30;;;;;;;24.37;9.93;;;;;;;22.81;64.79;99701.66;123277;1102;104278;-75
2023/06/17 00:55:01;;;;;;;20.23;10.20;;;;;;;22.76;64.75;99703.59;123505;1099;104165;-76
2023/06/17 00:57:33;;;;;;;19.50;9.93;;;;;;;22.70;64.87;99707.30;123285;1102;104202;-77
2023/06/17 01:00:09;;;;;;;22.73;10.83;;;;;;;22.67;65.48;99698.48;123425;1100;104290;-76
2023/06/17 01:02:43;;;;;;;18.33;9.97;;;;;;;22.64;65.93;99714.61;123431;1102;104256;-77
2023/06/17 01:05:17;;;;;;;18.83;10.03;;;;;;;22.60;65.68;99708.48;123230;1102;104285;-76
2023/06/17 01:08:05;;;;;;;19.67;10.30;;;;;;;22.57;65.91;99704.08;123400;1102;104418;-76
2023/06/17 01:10:48;;;;;;;19.87;10.40;;;;;;;22.53;65.79;99697.08;123329;1100;104207;-77
2023/06/17 01:13:20;;;;;;;18.50;10.03;;;;;;;22.50;66.26;99694.48;123253;1102;104224;-77
2023/06/17 01:15:52;;;;;;;20.77;11.00;;;;;;;22.47;66.21;99702.58;123339;1102;104759;-76
2023/06/17 01:18:25;;;;;;;22.57;11.37;;;;;;;22.44;67.05;99703.53;123182;1102;104274;-77
2023/06/17 01:20:58;;;;;;;21.63;12.53;;;;;;;22.42;66.47;99707.15;123264;1099;104265;-78
2023/06/17 01:23:31;;;;;;;;;;;;;;;22.35;66.15;99700.22;123363;1100;104274;-77
2023/06/17 01:26:03;;;;;;;21.95;12.10;;;;;;;22.34;66.57;99696.65;123161;1102;104354;-77
2023/06/17 01:28:36;;;;;;;23.60;12.10;;;;;;;22.34;66.59;99690.44;123207;1102;104367;-76
2023/06/17 01:31:12;;;;;;;27.27;13.03;;;;;;;22.33;67.08;99699.36;123207;1102;104229;-77
2023/06/17 01:33:46;;;;;;;24.20;11.90;;;;;;;22.30;67.44;99694.06;123521;1101;104431;-77
2023/06/17 01:36:23;;;;;;;21.30;12.70;;;;;;;22.28;67.12;99702.12;123331;1099;104287;-76
2023/06/17 01:39:02;;;;;;;24.03;12.57;;;;;;;22.21;67.30;99701.41;123179;1102;104329;-77
2023/06/17 01:41:39;;;;;;;24.37;13.23;;;;;;;22.20;67.00;99710.32;123442;1099;104245;-78
2023/06/17 01:44:12;;;;;;;22.23;13.03;;;;;;;22.21;67.66;99711.22;123447;1102;104249;-78
2023/06/17 01:46:44;;;;;;;21.57;11.35;;;;;;;22.22;68.08;99703.17;123347;1102;104363;-76
2023/06/17 01:49:15;;;;;;;21.27;11.70;;;;;;;22.22;67.37;99710.28;123423;1102;104354;-77
2023/06/17 01:51:47;;;;;;;22.53;11.80;;;;;;;22.18;67.81;99712.16;123317;1100;104258;-77
2023/06/17 01:54:18;;;;;;;23.33;12.17;;;;;;;22.15;67.91;99717.58;123339;1102;104297;-76
2023/06/17 01:56:49;;;;;;;25.23;11.30;;;;;;;22.10;68.33;99718.63;123177;1102;104307;-77
2023/06/17 01:59:21;;;;;;;22.73;11.30;;;;;;;22.03;68.85;99731.23;123290;1102;104437;-77
2023/06/17 02:01:52;;;;;;;26.20;11.10;;;;;;;22.00;68.79;99729.53;123492;1102;104302;-78
2023/06/17 02:04:23;;;;;;;18.77;10.33;;;;;;;21.98;69.32;99720.66;123356;1102;104626;-78
2023/06/17 02:06:55;;;;;;;22.13;10.83;;;;;;;22.00;69.33;99728.63;123547;1100;104229;-79
2023/06/17 02:09:26;;;;;;;24.87;11.57;;;;;;;22.00;69.29;99724.19;123364;1102;104319;-78
2023/06/17 02:11:57;;;;;;;20.57;11.03;;;;;;;21.99;69.15;99729.57;123287;1102;104376;-78
2023/06/17 02:14:30;;;;;;;20.53;10.30;;;;;;;22.00;68.57;99724.19;123335;1102;104274;-78
2023/06/17 02:17:03;;;;;;;19.00;9.90;;;;;;;22.01;69.54;99728.59;123390;1102;104380;-77
2023/06/17 02:19:35;;;;;;;24.03;10.73;;;;;;;22.02;69.29;99737.51;123362;1102;104395;-77
2023/06/17 02:22:07;;;;;;;20.10;10.57;;;;;;;22.04;68.94;99730.33;123306;1100;104248;-77
2023/06/17 02:24:38;;;;;;;22.53;10.90;;;;;;;22.10;69.04;99740.00;123333;1102;105983;-77
2023/06/17 02:27:10;;;;;;;22.77;10.60;;;;;;;22.18;69.42;99741.55;123269;1102;104310;-77
2023/06/17 02:29:41;;;;;;;20.80;10.50;;;;;;;22.25;69.28;99740.50;123223;1102;104316;-77
2023/06/17 02:32:12;;;;;;;22.00;10.70;;;;;;;22.34;68.81;99741.22;123344;1099;104386;-77
2023/06/17 02:34:43;;;;;;;21.77;11.00;;;;;;;22.38;68.86;99743.77;123387;1102;104300;-76
2023/06/17 02:37:15;;;;;;;20.50;10.70;;;;;;;22.42;69.26;99729.43;123366;1102;104361;-77
2023/06/17 02:39:46;;;;;;;20.20;10.87;;;;;;;22.48;68.58;99736.39;123204;1102;104312;-77
2023/06/17 02:42:17;;;;;;;22.93;10.60;;;;;;;22.51;68.87;99744.34;123320;1098;104242;-77
2023/06/17 02:44:49;;;;;;;22.15;10.65;;;;;;;22.53;68.99;99734.50;123398;1102;104195;-78
2023/06/17 02:47:20;;;;;;;19.80;10.47;;;;;;;22.57;68.95;99741.51;123298;1102;104308;-76
2023/06/17 02:49:52;;;;;;;20.07;10.60;;;;;;;22.61;69.24;99737.84;123204;1102;104271;-77
2023/06/17 02:52:23;;;;;;;20.47;10.83;;;;;;;22.65;68.83;99743.12;123260;1102;104328;-77
2023/06/17 02:54:55;;;;;;;24.13;10.43;;;;;;;22.66;68.59;99742.17;123500;1101;104274;-77
2023/06/17 02:57:27;;;;;;;21.87;11.10;;;;;;;22.67;69.12;99742.14;123346;1102;104344;-78
2023/06/17 02:59:58;;;;;;;20.90;11.00;;;;;;;22.72;68.74;99733.99;123277;1102;104434;-77
2023/06/17 03:02:30;;;;;;;20.57;10.93;;;;;;;22.75;68.85;99739.27;123482;1100;104504;-76
2023/06/17 03:05:01;;;;;;;21.53;10.70;;;;;;;22.78;68.65;99736.51;123296;1100;104345;-77
2023/06/17 03:07:35;;;;;;;21.50;10.23;;;;;;;22.76;68.96;99733.00;123261;1102;104319;-76
2023/06/17 03:10:08;;;;;;;17.47;9.60;;;;;;;22.79;68.51;99735.59;123381;1102;104746;-78
2023/06/17 03:12:45;;;;;;;20.90;10.43;;;;;;;22.79;68.98;99730.25;123307;1102;104257;-77
2023/06/17 03:15:18;;;;;;;21.20;10.60;;;;;;;22.79;68.79;99731.12;123249;1102;104409;-77
2023/06/17 03:17:50;;;;;;;19.85;10.75;;;;;;;22.81;68.52;99731.08;123366;1102;104347;-77
2023/06/17 03:20:28;;;;;;;22.27;10.67;;;;;;;22.82;69.00;99730.17;123395;1101;104274;-77
2023/06/17 03:23:02;;;;;;;19.30;10.37;;;;;;;22.83;68.99;99723.91;123358;1102;104392;-77
2023/06/17 03:25:33;;;;;;;21.42;10.63;;;;;;;22.82;68.87;99730.17;123360;1102;104351;-77
2023/06/17 03:28:05;;;;;;;21.60;10.20;;;;;;;22.83;68.68;99725.69;123331;1101;104348;-78
2023/06/17 03:30:39;;;;;;;20.97;10.63;;;;;;;22.83;69.21;99726.59;123469;1102;104431;-77
2023/06/17 03:33:11;;;;;;;19.67;9.90;;;;;;;22.86;68.55;99725.60;123339;1102;104300;-77
2023/06/17 03:35:42;;;;;;;21.23;9.90;;;;;;;22.89;68.94;99729.09;123279;1102;104309;-77
2023/06/17 03:38:14;;;;;;;19.70;10.37;;;;;;;22.92;68.78;99723.66;123262;1102;104389;-77
2023/06/17 03:40:45;;;;;;;22.07;9.63;;;;;;;22.96;68.61;99730.66;123431;1102;104376;-77
2023/06/17 03:43:16;;;;;;;22.13;9.00;;;;;;;23.02;68.78;99731.44;123250;1102;104306;-77
2023/06/17 03:45:48;;;;;;;17.07;9.20;;;;;;;23.09;68.92;99725.01;123214;1102;104769;-77
2023/06/17 03:48:19;;;;;;;18.40;9.35;;;;;;;23.17;68.55;99723.02;123322;1102;104334;-77
2023/06/17 03:50:50;;;;;;;21.27;9.60;;;;;;;23.26;68.63;99709.34;123283;1102;104364;-76
2023/06/17 03:53:22;;;;;;;20.83;8.57;;;;;;;23.35;68.20;99716.23;123324;1102;104399;-77
2023/06/17 03:55:54;;;;;;;17.17;8.33;;;;;;;23.43;68.45;99716.88;123227;1102;104280;-77
2023/06/17 03:58:25;;;;;;;17.53;8.20;;;;;;;23.53;68.11;99716.59;123313;1100;104288;-76
2023/06/17 04:00:57;;;;;;;19.23;8.77;;;;;;;23.64;68.01;99719.85;123310;1102;104242;-76
2023/06/17 04:03:28;;;;;;;17.10;8.57;;;;;;;23.74;67.82;99715.08;123212;1102;104415;-76
2023/06/17 04:05:59;;;;;;;18.47;8.23;;;;;;;23.83;67.94;99712.12;123279;1102;107047;-77
2023/06/17 04:08:32;;;;;;;16.93;8.13;;;;;;;23.91;67.41;99712.77;123240;1100;104267;-77
2023/06/17 04:11:04;;;;;;;21.03;9.30;;;;;;;23.96;67.27;99710.81;123308;1102;104284;-77
2023/06/17 04:13:35;;;;;;;15.63;8.10;;;;;;;24.07;67.32;99707.80;123411;1102;104246;-78
2023/06/17 04:16:07;;;;;;;14.70;7.53;;;;;;;24.19;67.44;99714.56;123562;1102;104355;-77
2023/06/17 04:18:38;;;;;;;18.50;8.30;;;;;;;24.34;67.29;99715.84;123460;1102;104342;-79
2023/06/17 04:21:10;;;;;;;16.53;7.20;;;;;;;24.44;66.72;99717.30;123672;1102;104351;-78
2023/06/17 04:23:42;;;;;;;15.00;7.30;;;;;;;24.50;66.09;99714.41;123733;1102;104278;-80
2023/06/17 04:26:15;;;;;;;13.50;6.67;;;;;;;24.61;65.58;99718.57;123849;1102;104438;-76
2023/06/17 04:28:47;;;;;;;11.80;5.83;;;;;;;24.73;65.84;99713.64;123968;1101;104248;-78
2023/06/17 04:31:19;;;;;;;15.80;6.10;;;;;;;24.86;65.23;99718.58;123552;1102;104367;-76
2023/06/17 04:33:50;;;;;;;14.30;5.40;;;;;;;24.97;63.69;99719.06;123641;1102;104325;-78
2023/06/17 04:36:21;;;;;;;13.97;5.90;;;;;;;25.02;63.54;99724.27;123656;1102;104274;-77
2023/06/17 04:38:54;;;;;;;13.63;5.20;;;;;;;25.06;63.16;99721.41;123509;1102;104290;-76
2023/06/17 04:41:26;;;;;;;11.70;5.03;;;;;;;25.16;62.24;99716.57;123561;1102;104303;-76
2023/06/17 04:43:57;;;;;;;10.97;5.20;;;;;;;25.28;62.01;99715.25;123547;1102;104335;-76
2023/06/17 04:46:29;;;;;;;15.17;5.33;;;;;;;25.45;61.67;99718.20;123566;1102;104353;-75
2023/06/17 04:49:02;;;;;;;14.70;5.07;;;;;;;25.57;60.90;99718.66;123680;1099;104261;-78
2023/06/17 04:51:37;;;;;;;13.17;5.23;;;;;;;25.70;60.67;99722.62;124094;1102;104198;-77
2023/06/17 04:54:08;;;;;;;14.07;4.63;;;;;;;25.80;60.19;99728.50;123503;1102;104373;-76
2023/06/17 04:56:40;;;;;;;11.80;4.63;;;;;;;25.75;59.38;99727.82;123603;1102;104434;-78
2023/06/17 04:59:11;;;;;;;11.13;4.83;;;;;;;25.71;57.88;99729.77;123861;1102;104321;-77
2023/06/17 05:01:42;;;;;;;11.17;4.37;;;;;;;25.67;57.89;99727.25;123680;1102;104331;-78
2023/06/17 05:04:14;;;;;;;10.53;4.43;;;;;;;25.70;58.08;99722.62;123794;1103;104322;-77
2023/06/17 05:06:46;;;;;;;12.43;5.03;;;;;;;25.79;57.44;99727.64;123630;1099;104226;-77
2023/06/17 05:09:18;;;;;;;13.63;4.30;;;;;;;25.87;58.03;99730.03;123811;1102;104430;-78
2023/06/17 05:11:50;;;;;;;11.77;4.60;;;;;;;25.97;57.54;99741.27;123904;1100;104286;-78
2023/06/17 05:14:21;;;;;;;10.60;4.47;;;;;;;26.01;57.22;99732.20;123754;1102;104251;-80
2023/06/17 05:16:53;;;;;;;10.43;4.20;;;;;;;26.06;57.21;99735.56;123991;1102;104331;-78
2023/06/17 05:19:25;;;;;;;11.30;4.27;;;;;;;26.13;56.53;99731.70;123959;1102;104360;-78
2023/06/17 05:21:56;;;;;;;13.10;4.70;;;;;;;26.20;56.64;99732.31;124017;1102;104418;-78
2023/06/17 05:24:30;;;;;;;13.73;4.30;;;;;;;26.17;56.28;99738.68;124062;1099;104267;-79
2023/06/17 05:27:01;;;;;;;10.63;4.80;;;;;;;26.16;56.39;99742.33;124052;1100;104220;-79
2023/06/17 05:29:33;;;;;;;10.23;4.70;;;;;;;26.22;56.10;99735.80;123868;1102;104270;-77
2023/06/17 05:32:04;;;;;;;11.70;4.47;;;;;;;26.23;55.70;99742.08;123850;1102;104379;-79
2023/06/17 05:34:35;;;;;;;10.47;4.93;;;;;;;26.25;54.97;99750.95;123909;1102;104332;-78
2023/06/17 05:37:07;;;;;;;14.20;5.03;;;;;;;26.29;55.24;99752.58;123725;1102;104395;-79
2023/06/17 05:39:38;;;;;;;9.43;4.20;;;;;;;26.37;55.38;99753.12;123757;1099;104316;-80
2023/06/17 05:42:10;;;;;;;10.60;4.57;;;;;;;26.43;54.66;99746.60;123755;1099;104241;-78
2023/06/17 05:44:41;;;;;;;12.90;4.60;;;;;;;26.45;54.57;99748.30;123761;1102;104274;-78
2023/06/17 05:47:14;;;;;;;11.43;5.00;;;;;;;26.51;54.57;99741.80;123624;1102;104280;-76
2023/06/17 05:49:45;;;;;;;8.27;4.23;;;;;;;26.58;54.15;99754.03;123762;1102;104288;-80
2023/06/17 05:52:17;;;;;;;14.07;4.70;;;;;;;26.55;53.65;99748.78;123603;1100;104273;-78
2023/06/17 05:54:48;;;;;;;11.97;4.30;;;;;;;26.59;53.39;99754.92;123738;1102;104181;-77
2023/06/17 05:57:21;;;;;;;12.37;4.90;;;;;;;26.64;53.68;99750.21;123570;1102;104275;-78
2023/06/17 05:59:52;;;;;;;10.03;4.37;;;;;;;26.62;52.63;99749.41;123598;1102;104456;-77
2023/06/17 06:02:24;;;;;;;9.87;4.57;;;;;;;26.67;52.67;99752.81;123622;1102;104310;-78
2023/06/17 06:04:55;;;;;;;13.33;4.37;;;;;;;26.72;52.29;99759.75;123617;1102;104322;-78
2023/06/17 06:07:26;;;;;;;13.43;5.00;;;;;;;26.70;52.51;99755.37;123698;1099;104226;-77
2023/06/17 06:09:57;;;;;;;11.67;5.20;;;;;;;26.76;52.70;99752.41;123620;1100;104261;-77
2023/06/17 06:12:29;;;;;;;8.65;4.60;;;;;;;26.83;52.51;99755.70;123693;1102;104699;-77
2023/06/17 06:15:00;;;;;;;9.87;4.37;;;;;;;26.89;52.59;99752.75;123698;1102;104335;-77
2023/06/17 06:17:31;;;;;;;8.47;4.10;;;;;;;26.87;51.97;99752.81;123713;1102;104281;-78
2023/06/17 06:20:03;;;;;;;12.00;4.43;;;;;;;26.89;51.48;99756.30;123704;1102;104283;-78
2023/06/17 06:22:34;;;;;;;13.63;4.80;;;;;;;26.91;51.50;99761.62;123552;1102;104255;-78
2023/06/17 06:25:06;;;;;;;14.30;4.83;;;;;;;26.87;51.64;99757.33;123777;1102;104377;-77
2023/06/17 06:27:38;;;;;;;12.20;4.50;;;;;;;26.84;51.35;99754.77;123573;1102;104232;-79
2023/06/17 06:30:12;;;;;;;13.80;4.63;;;;;;;26.83;51.20;99753.91;123698;1102;104220;-78
2023/06/17 06:32:44;;;;;;;12.23;4.97;;;;;;;26.82;51.16;99753.98;123805;1102;104258;-78
2023/06/17 06:35:16;;;;;;;11.30;4.37;;;;;;;26.82;50.64;99749.45;123582;1102;104423;-77
2023/06/17 06:37:48;;;;;;;14.30;4.60;;;;;;;26.83;50.88;99748.53;123661;1102;104389;-78
2023/06/17 06:40:19;;;;;;;11.25;4.60;;;;;;;26.82;50.41;99752.15;123472;1101;104277;-76
2023/06/17 06:42:51;;;;;;;16.23;4.83;;;;;;;26.82;50.31;99749.45;123501;1102;104323;-75
2023/06/17 06:45:29;;;;;;;10.97;4.77;;;;;;;26.80;50.93;99759.42;123633;1100;104284;-77
2023/06/17 06:48:00;;;;;;;11.13;4.40;;;;;;;26.85;51.05;99751.16;123649;1099;104186;-78
2023/06/17 06:50:33;;;;;;;9.85;4.65;;;;;;;26.90;51.07;99749.98;123525;1102;104354;-76
2023/06/17 06:53:04;;;;;;;12.85;5.15;;;;;;;26.94;50.46;99744.47;123764;1102;104179;-77
2023/06/17 06:55:36;;;;;;;12.30;4.70;;;;;;;26.98;50.63;99752.34;123675;1102;104325;-78
2023/06/17 06:58:07;;;;;;;9.80;4.40;;;;;;;27.04;50.42;99748.52;123682;1100;104284;-76
2023/06/17 07:00:39;;;;;;;9.67;4.67;;;;;;;27.17;50.05;99740.76;123537;1102;104331;-77
2023/06/17 07:03:12;;;;;;;11.75;4.15;;;;;;;27.29;49.89;99737.51;123654;1102;104438;-77
2023/06/17 07:05:44;;;;;;;13.57;4.30;;;;;;;27.46;50.00;99736.77;123728;1102;104297;-77
2023/06/17 07:08:16;;;;;;;12.07;4.77;;;;;;;27.61;49.82;99735.16;123599;1101;104239;-76
2023/06/17 07:10:47;;;;;;;13.87;4.53;;;;;;;27.76;49.83;99738.97;123637;1102;104172;-77
2023/06/17 07:13:18;;;;;;;10.73;4.33;;;;;;;27.87;49.26;99738.45;123578;1102;104316;-78
2023/06/17 07:15:50;;;;;;;14.10;4.57;;;;;;;27.98;49.22;99736.13;123431;1102;104411;-77
2023/06/17 07:18:23;;;;;;;11.03;4.65;;;;;;;28.06;49.29;99731.23;123546;1102;104775;-76
2023/06/17 07:20:54;;;;;;;11.37;3.90;;;;;;;28.17;49.40;99729.84;123496;1102;104320;-77
2023/06/17 07:23:27;;;;;;;11.17;4.37;;;;;;;28.30;49.13;99729.16;123414;1102;104415;-76
2023/06/17 07:25:58;;;;;;;11.20;4.83;;;;;;;28.47;48.65;99731.00;123650;1102;104195;-77
2023/06/17 07:28:31;;;;;;;11.67;4.47;;;;;;;28.57;48.54;99746.73;123514;1102;104395;-77
2023/06/17 07:31:03;;;;;;;9.28;4.00;;;;;;;28.63;47.97;99735.66;123653;1102;104210;-78
2023/06/17 07:33:34;;;;;;;10.20;4.23;;;;;;;28.71;48.06;99743.36;123656;1099;104239;-78
2023/06/17 07:36:07;;;;;;;11.77;4.60;;;;;;;28.76;47.52;99735.89;123632;1102;104387;-78
2023/06/17 07:38:38;;;;;;;11.63;4.47;;;;;;;28.91;47.62;99739.63;123537;1102;104172;-77
2023/06/17 07:41:09;;;;;;;11.27;4.17;;;;;;;29.13;47.60;99733.95;123487;1102;104399;-76
2023/06/17 07:43:41;;;;;;;11.40;4.57;;;;;;;29.28;47.10;99732.27;123263;1102;104287;-77
2023/06/17 07:46:12;;;;;;;12.00;4.40;;;;;;;29.34;46.51;99731.94;123254;1102;104357;-77
2023/06/17 07:48:43;;;;;;;11.17;4.20;;;;;;;29.45;46.40;99736.76;123324;1102;105522;-76
2023/06/17 07:51:14;;;;;;;9.17;3.87;;;;;;;29.58;46.55;99733.30;123464;1099;104193;-78
2023/06/17 07:53:46;;;;;;;14.00;4.17;;;;;;;29.62;45.72;99735.83;123472;1099;104396;-78
2023/06/17 07:56:18;;;;;;;10.50;4.00;;;;;;;29.68;45.43;99738.19;123281;1102;104252;-76
2023/06/17 07:58:50;;;;;;;11.15;3.83;;;;;;;29.75;44.60;99743.17;123269;1101;104242;-75
2023/06/17 08:01:22;;;;;;;12.00;3.90;;;;;;;29.88;43.81;99742.52;123613;1100;104182;-77
2023/06/17 08:03:53;;;;;;;8.93;4.43;;;;;;;30.04;44.04;99727.14;123670;1102;104229;-78
2023/06/17 08:06:24;;;;;;;11.90;3.80;;;;;;;30.20;43.71;99732.56;123571;1102;104252;-77
2023/06/17 08:08:55;;;;;;;11.53;3.80;;;;;;;30.33;43.35;99732.70;123752;1102;104265;-77
2023/06/17 08:11:27;;;;;;;10.83;3.70;;;;;;;30.42;42.94;99734.05;123477;1101;104351;-79
2023/06/17 08:13:58;;;;;;;8.45;3.70;;;;;;;30.38;43.03;99732.44;123457;1102;104322;-78
2023/06/17 08:16:29;;;;;;;10.47;3.77;;;;;;;30.55;43.01;99734.18;123810;1102;104651;-77
2023/06/17 08:19:00;;;;;;;9.27;3.93;;;;;;;30.80;42.98;99731.72;123528;1101;104415;-79
2023/06/17 08:21:31;;;;;;;10.03;3.97;;;;;;;30.91;42.29;99732.92;123442;1102;104342;-80
2023/06/17 08:24:18;;;;;;;10.30;3.80;;;;;;;31.00;41.48;99740.52;123816;1102;104306;-80
2023/06/17 08:26:50;;;;;;;9.27;3.93;;;;;;;31.12;41.60;99731.63;123714;1099;104280;-77
2023/06/17 08:29:22;;;;;;;8.93;3.80;;;;;;;31.29;41.64;99729.69;123830;1100;104380;-80
2023/06/17 08:31:54;;;;;;;10.70;3.87;;;;;;;31.45;41.15;99732.33;123532;1102;104421;-79
2023/06/17 08:34:27;;;;;;;7.33;3.93;;;;;;;31.21;40.95;99730.17;123588;1102;104294;-79
2023/06/17 08:37:03;;;;;;;9.57;4.20;;;;;;;31.02;40.38;99735.86;123687;1102;104271;-81
2023/06/17 08:39:39;;;;;;;7.27;3.53;;;;;;;30.68;39.91;99739.72;123479;1102;104232;-78
2023/06/17 08:42:11;;;;;;;13.83;3.40;;;;;;;30.39;40.33;99739.64;123625;1102;104342;-79
2023/06/17 08:44:44;;;;;;;8.03;3.30;;;;;;;30.30;39.73;99738.30;123346;1102;104683;-76
2023/06/17 08:47:16;;;;;;;7.93;3.60;;;;;;;30.36;39.39;99737.94;123482;1102;104280;-76
2023/06/17 08:49:48;;;;;;;10.60;3.70;;;;;;;30.55;40.02;99737.75;123334;1102;104271;-77
2023/06/17 08:52:20;;;;;;;6.53;3.30;;;;;;;30.67;40.04;99740.67;123381;1102;104754;-78
2023/06/17 08:54:52;;;;;;;11.27;3.70;;;;;;;30.86;39.51;99745.88;123494;1102;104274;-77
2023/06/17 08:57:24;;;;;;;14.13;3.93;;;;;;;31.02;39.50;99730.45;123369;1100;104216;-78
2023/06/17 08:59:55;;;;;;;6.57;3.77;;;;;;;31.05;38.78;99741.09;123553;1100;104351;-78
2023/06/17 09:02:27;;;;;;;8.33;3.87;;;;;;;30.80;38.93;99738.98;123706;1102;104338;-78
2023/06/17 09:04:59;;;;;;;9.93;3.83;;;;;;;30.68;39.10;99737.88;123730;1101;104287;-79
2023/06/17 09:07:31;;;;;;;8.10;3.80;;;;;;;30.67;39.06;99741.56;124173;1103;102052;-80
2023/06/17 09:10:09;;;;;;;10.53;3.63;;;;;;;30.74;39.21;99732.09;123647;1102;104438;-78
2023/06/17 09:12:41;;;;;;;7.13;3.80;;;;;;;30.92;38.57;99732.83;123754;1102;104332;-80
2023/06/17 09:15:18;;;;;;;7.57;4.03;;;;;;;31.12;38.83;99726.21;123773;1102;104271;-79
2023/06/17 09:17:50;;;;;;;7.23;3.93;;;;;;;31.26;38.62;99728.06;123691;1102;104227;-80
2023/06/17 09:20:24;;;;;;;9.13;3.70;;;;;;;31.36;38.08;99707.52;123460;1101;105620;-78
2023/06/17 09:22:55;;;;;;;7.67;3.60;;;;;;;31.56;38.17;99718.13;123511;1102;104391;-77
2023/06/17 09:25:26;;;;;;;9.77;4.03;;;;;;;31.54;37.75;99713.66;123486;1102;104303;-77
2023/06/17 09:27:58;;;;;;;8.70;3.80;;;;;;;31.49;37.63;99713.06;123533;1102;104220;-78
2023/06/17 09:30:29;;;;;;;7.63;3.70;;;;;;;31.57;37.79;99707.17;123445;1100;104165;-79
2023/06/17 09:33:01;;;;;;;11.33;4.30;;;;;;;31.64;37.42;99711.22;123408;1102;104296;-79
2023/06/17 09:35:35;;;;;;;6.60;3.60;;;;;;;31.59;37.21;99705.23;123599;1102;104654;-78
2023/06/17 09:38:07;;;;;;;8.77;3.90;;;;;;;31.61;37.24;99710.55;123610;1102;104245;-79
2023/06/17 09:40:39;;;;;;;7.17;3.67;;;;;;;31.56;36.89;99702.71;123589;1101;104251;-78
2023/06/17 09:43:12;;;;;;;8.67;3.83;;;;;;;31.49;37.11;99690.48;123513;1100;104357;-78
2023/06/17 09:45:44;;;;;;;9.77;3.87;;;;;;;31.57;37.45;99700.86;123649;1102;104271;-77
2023/06/17 09:48:20;;;;;;;11.00;3.60;;;;;;;31.53;36.54;99695.64;123478;1102;104350;-78
2023/06/17 09:50:56;;;;;;;6.93;3.50;;;;;;;31.40;36.18;99693.77;123493;1100;104255;-78
2023/06/17 09:53:30;;;;;;;8.50;3.60;;;;;;;31.38;36.62;99687.59;123512;1102;104784;-79
2023/06/17 09:56:02;;;;;;;6.73;3.70;;;;;;;31.35;35.64;99694.07;123593;1102;104185;-77
2023/06/17 09:58:34;;;;;;;7.77;3.40;;;;;;;31.40;35.56;99681.11;123453;1101;104354;-76
2023/06/17 10:01:06;;;;;;;7.17;3.50;;;;;;;31.54;35.17;99677.55;123316;1103;104377;-77
2023/06/17 10:03:39;;;;;;;7.90;3.57;;;;;;;31.49;34.81;99683.23;123270;1101;104363;-77
2023/06/17 10:06:12;;;;;;;7.03;3.37;;;;;;;31.29;34.58;99678.20;123332;1100;104248;-76
2023/06/17 10:08:48;;;;;;;13.53;3.70;;;;;;;31.17;33.94;99680.72;123496;1099;104248;-75
2023/06/17 10:11:21;;;;;;;7.57;3.27;;;;;;;31.24;34.22;99677.62;123448;1099;104187;-77
2023/06/17 10:13:57;;;;;;;;;;;;;;;31.38;34.48;99674.04;123447;1102;104261;-77
2023/06/17 10:16:33;;;;;;;7.13;3.40;;;;;;;31.59;34.14;99666.41;123685;1102;104370;-78
2023/06/17 10:19:07;;;;;;;9.23;3.37;;;;;;;31.71;34.07;99673.72;123816;1102;104306;-80
2023/06/17 10:21:41;;;;;;;8.70;2.93;;;;;;;31.74;33.66;99668.09;124007;1102;104207;-81
2023/06/17 10:24:14;;;;;;;9.20;3.53;;;;;;;31.75;33.68;99667.13;123790;1102;104242;-81
2023/06/17 10:26:45;;;;;;;6.55;3.65;;;;;;;31.74;33.33;99670.80;123864;1102;104198;-82
2023/06/17 10:29:16;;;;;;;8.20;3.80;;;;;;;31.72;33.17;99659.19;123557;1099;104249;-79
2023/06/17 10:31:48;;;;;;;8.03;3.70;;;;;;;31.77;33.24;99656.18;123519;1100;104316;-78
2023/06/17 10:34:23;;;;;;;6.43;3.23;;;;;;;31.83;33.01;99659.34;123659;1102;104245;-80
2023/06/17 10:37:01;;;;;;;9.70;3.60;;;;;;;32.02;32.39;99660.84;123540;1102;104639;-79
2023/06/17 10:39:32;;;;;;;8.73;3.37;;;;;;;32.14;32.39;99660.05;123469;1100;104408;-78
2023/06/17 10:42:03;;;;;;;9.37;3.70;;;;;;;32.20;32.45;99654.20;123591;1102;104254;-80
2023/06/17 10:44:44;;;;;;;8.40;3.30;;;;;;;32.17;32.40;99654.41;123325;1102;104255;-78
2023/06/17 10:47:21;;;;;;;8.33;3.77;;;;;;;32.06;32.16;99655.09;123480;1102;104242;-77
2023/06/17 10:49:55;;;;;;;9.70;3.60;;;;;;;32.03;31.54;99647.16;123411;1102;104243;-78
2023/06/17 10:52:30;;;;;;;7.03;3.43;;;;;;;32.06;31.94;99637.96;123278;1102;104431;-75
2023/06/17 10:55:01;;;;;;;7.30;3.50;;;;;;;31.99;31.91;99644.77;123661;1102;104201;-78
2023/06/17 10:57:34;;;;;;;6.43;3.43;;;;;;;31.85;31.95;99638.44;123499;1102;104380;-78
2023/06/17 11:00:08;;;;;;;7.65;3.45;;;;;;;31.80;31.92;99639.70;123445;1102;104290;-77
2023/06/17 11:02:40;;;;;;;9.20;3.40;;;;;;;31.66;31.74;99632.48;123705;1099;104357;-78
2023/06/17 11:05:12;;;;;;;7.43;3.60;;;;;;;31.82;31.42;99619.66;123666;1102;104254;-80
2023/06/17 11:07:43;;;;;;;8.37;3.93;;;;;;;31.99;31.56;99637.52;123588;1102;104274;-79
2023/06/17 11:10:14;;;;;;;5.37;3.50;;;;;;;31.92;31.56;99629.89;123469;1102;104351;-74
2023/06/17 11:12:48;;;;;;;9.57;3.83;;;;;;;31.95;31.34;99635.97;123284;1100;105678;-76
2023/06/17 11:15:21;;;;;;;7.37;3.73;;;;;;;31.98;31.32;99624.91;123631;1100;104268;-78
2023/06/17 11:18:01;;;;;;;5.97;3.40;;;;;;;31.76;31.21;99630.91;123635;1102;104294;-78
2023/06/17 11:20:36;;;;;;;5.85;3.50;;;;;;;31.64;31.25;99629.02;123812;1099;104245;-80
2023/06/17 11:23:07;;;;;;;9.10;3.30;;;;;;;31.63;31.19;99635.39;123965;1099;104328;-80
2023/06/17 11:25:40;;;;;;;6.83;3.63;;;;;;;31.62;31.02;99636.35;123780;1102;104239;-82
2023/06/17 11:28:11;;;;;;;5.42;3.40;;;;;;;31.67;31.07;99634.23;123741;1102;104794;-82
2023/06/17 11:30:43;;;;;;;7.33;3.23;;;;;;;31.67;31.13;99637.80;123810;1099;104418;-81
2023/06/17 11:33:14;;;;;;;7.97;3.67;;;;;;;31.72;30.94;99632.08;123878;1102;104313;-79